createdAt,value
2022-09-12T00:01:18.183Z,12.40
2022-09-12T00:03:45.427Z,12.50
2022-09-12T00:06:17.191Z,12.50
2022-09-12T00:08:47.591Z,12.60
2022-09-12T00:11:14.594Z,12.70
2022-09-12T00:13:42.085Z,12.80
2022-09-12T00:16:15.810Z,12.70
2022-09-12T00:18:45.046Z,12.70
2022-09-12T00:21:12.140Z,12.50
2022-09-12T00:23:38.990Z,12.30
2022-09-12T00:26:06.625Z,12.20
2022-09-12T00:28:34.649Z,12.30
2022-09-12T00:31:04.000Z,12.30
2022-09-12T00:33:31.339Z,12.20
2022-09-12T00:35:58.179Z,12.20
2022-09-12T00:38:24.974Z,12.20
2022-09-12T00:40:51.849Z,12.10
2022-09-12T00:43:30.606Z,12.20
2022-09-12T00:45:58.183Z,12.20
2022-09-12T00:48:31.015Z,12.20
2022-09-12T00:50:58.322Z,12.10
2022-09-12T00:53:25.641Z,12.00
2022-09-12T00:55:53.159Z,12.00
2022-09-12T00:58:22.378Z,12.10
2022-09-12T01:00:49.901Z,11.90
2022-09-12T01:03:18.019Z,12.00
2022-09-12T01:05:52.839Z,12.10
2022-09-12T01:08:20.423Z,11.90
2022-09-12T01:10:47.709Z,11.90
2022-09-12T01:13:14.960Z,11.90
2022-09-12T01:15:41.846Z,11.80
2022-09-12T01:18:14.454Z,11.90
2022-09-12T01:20:44.079Z,11.90
2022-09-12T01:23:31.160Z,11.80
2022-09-12T01:26:01.096Z,11.70
2022-09-12T01:28:28.046Z,11.70
2022-09-12T01:30:54.939Z,11.80
2022-09-12T01:33:40.299Z,11.80
2022-09-12T01:36:32.466Z,11.70
2022-09-12T01:39:01.398Z,11.70
2022-09-12T01:41:41.104Z,11.80
2022-09-12T01:44:23.527Z,11.80
2022-09-12T01:47:02.394Z,11.80
2022-09-12T01:49:41.269Z,11.70
2022-09-12T01:52:08.963Z,11.70
2022-09-12T01:54:39.998Z,11.70
2022-09-12T01:57:11.210Z,11.60
2022-09-12T01:59:44.374Z,11.70
2022-09-12T02:02:38.092Z,11.80
2022-09-12T02:05:14.940Z,11.70
2022-09-12T02:07:51.572Z,11.60
2022-09-12T02:10:24.021Z,11.50
2022-09-12T02:13:17.512Z,11.50
2022-09-12T02:15:50.539Z,11.30
2022-09-12T02:18:20.057Z,11.30
2022-09-12T02:20:49.282Z,11.30
2022-09-12T02:23:25.424Z,11.40
2022-09-12T02:26:05.979Z,11.40
2022-09-12T02:28:36.946Z,11.50
2022-09-12T02:31:17.397Z,11.50
2022-09-12T02:34:14.069Z,11.60
2022-09-12T02:36:50.196Z,11.60
2022-09-12T02:39:21.107Z,11.50
2022-09-12T02:41:51.772Z,11.60
2022-09-12T02:44:19.227Z,11.40
2022-09-12T02:46:53.918Z,11.40
2022-09-12T02:49:21.329Z,11.30
2022-09-12T02:51:48.739Z,11.30
2022-09-12T02:54:17.964Z,11.20
2022-09-12T02:56:45.766Z,11.10
2022-09-12T02:59:18.008Z,11.10
2022-09-12T03:02:16.759Z,11.00
2022-09-12T03:05:05.259Z,11.00
2022-09-12T03:07:56.859Z,11.10
2022-09-12T03:10:45.581Z,11.00
2022-09-12T03:13:12.578Z,11.00
2022-09-12T03:16:08.603Z,11.10
2022-09-12T03:18:53.771Z,11.00
2022-09-12T03:21:26.902Z,10.90
2022-09-12T03:23:56.991Z,11.00
2022-09-12T03:26:44.779Z,11.00
2022-09-12T03:29:12.654Z,11.00
2022-09-12T03:31:48.231Z,10.90
2022-09-12T03:34:15.178Z,10.90
2022-09-12T03:36:42.223Z,10.90
2022-09-12T03:39:09.106Z,10.80
2022-09-12T03:41:36.111Z,10.80
2022-09-12T03:44:03.579Z,10.80
2022-09-12T03:46:30.446Z,10.80
2022-09-12T03:48:57.436Z,10.80
2022-09-12T03:51:24.515Z,10.70
2022-09-12T03:53:51.302Z,10.60
2022-09-12T03:56:19.424Z,10.70
2022-09-12T03:58:46.830Z,10.70
2022-09-12T04:01:14.931Z,10.70
2022-09-12T04:03:42.281Z,10.70
2022-09-12T04:06:09.825Z,10.70
2022-09-12T04:08:37.470Z,10.70
2022-09-12T04:11:05.543Z,10.60
2022-09-12T04:13:32.623Z,10.60
2022-09-12T04:16:00.018Z,10.60
2022-09-12T04:18:27.484Z,10.60
2022-09-12T04:20:54.382Z,10.60
2022-09-12T04:23:21.175Z,10.50
2022-09-12T04:25:57.635Z,10.40
2022-09-12T04:28:24.811Z,10.40
2022-09-12T04:30:51.722Z,10.40
2022-09-12T04:33:18.795Z,10.30
2022-09-12T04:35:45.638Z,10.40
2022-09-12T04:38:12.514Z,10.40
2022-09-12T04:40:39.482Z,10.30
2022-09-12T04:43:09.226Z,10.40
2022-09-12T04:45:38.181Z,10.30
2022-09-12T04:48:05.076Z,10.40
2022-09-12T04:50:32.141Z,10.40
2022-09-12T04:52:58.924Z,10.40
2022-09-12T04:55:26.219Z,10.30
2022-09-12T04:57:53.159Z,10.30
2022-09-12T05:00:20.603Z,10.40
2022-09-12T05:02:47.499Z,10.40
2022-09-12T05:05:14.530Z,10.30
2022-09-12T05:07:41.318Z,10.40
2022-09-12T05:10:08.559Z,10.50
2022-09-12T05:12:36.139Z,10.50
2022-09-12T05:15:04.703Z,10.40
2022-09-12T05:17:31.666Z,10.40
2022-09-12T05:19:58.531Z,10.40
2022-09-12T05:22:25.327Z,10.40
2022-09-12T05:24:52.184Z,10.40
2022-09-12T05:27:20.144Z,10.30
2022-09-12T05:29:46.973Z,10.40
2022-09-12T05:32:13.841Z,10.40
2022-09-12T05:34:40.732Z,10.50
2022-09-12T05:37:07.847Z,10.50
2022-09-12T05:39:34.878Z,10.60
2022-09-12T05:42:02.607Z,10.50
2022-09-12T05:44:29.475Z,10.60
2022-09-12T05:46:56.254Z,10.60
2022-09-12T05:49:23.270Z,10.70
2022-09-12T05:51:51.638Z,10.60
2022-09-12T05:54:20.444Z,10.70
2022-09-12T05:56:48.649Z,10.70
2022-09-12T05:59:19.796Z,10.80
2022-09-12T06:01:46.981Z,10.90
2022-09-12T06:04:13.964Z,11.00
2022-09-12T06:06:42.063Z,11.00
2022-09-12T06:09:09.458Z,11.20
2022-09-12T06:11:37.387Z,11.30
2022-09-12T06:14:04.713Z,11.50
2022-09-12T06:16:33.207Z,11.50
2022-09-12T06:19:20.422Z,11.70
2022-09-12T06:21:48.380Z,11.70
2022-09-12T06:24:18.474Z,11.90
2022-09-12T06:26:45.684Z,12.00
2022-09-12T06:29:13.366Z,12.30
2022-09-12T06:31:41.877Z,12.40
2022-09-12T06:34:10.112Z,12.60
2022-09-12T06:36:38.962Z,12.80
2022-09-12T06:39:07.757Z,13.00
2022-09-12T06:41:34.775Z,13.30
2022-09-12T06:44:01.838Z,13.50
2022-09-12T06:46:28.911Z,13.50
2022-09-12T06:48:56.183Z,13.50
2022-09-12T06:51:23.379Z,13.40
2022-09-12T06:53:50.381Z,13.30
2022-09-12T06:56:21.370Z,13.50
2022-09-12T06:58:49.283Z,13.80
2022-09-12T07:01:19.041Z,14.00
2022-09-12T07:03:56.221Z,14.30
2022-09-12T07:06:24.490Z,14.40
2022-09-12T07:08:51.363Z,14.70
2022-09-12T07:11:20.238Z,14.80
2022-09-12T07:13:48.233Z,15.10
2022-09-12T07:16:19.457Z,14.80
2022-09-12T07:18:50.925Z,14.90
2022-09-12T07:21:17.825Z,14.90
2022-09-12T07:23:45.567Z,14.90
2022-09-12T07:26:13.018Z,15.10
2022-09-12T07:28:40.231Z,15.20
2022-09-12T07:31:08.789Z,15.30
2022-09-12T07:33:35.845Z,15.70
2022-09-12T07:36:03.981Z,15.90
2022-09-12T07:38:31.116Z,16.10
2022-09-12T07:40:57.923Z,16.20
2022-09-12T07:43:25.209Z,16.30
2022-09-12T07:45:56.158Z,16.40
2022-09-12T07:48:23.221Z,16.70
2022-09-12T07:50:57.654Z,17.30
2022-09-12T07:53:24.550Z,17.70
2022-09-12T07:55:55.178Z,18.70
2022-09-12T07:58:25.139Z,19.30
2022-09-12T08:00:52.250Z,19.80
2022-09-12T08:03:19.324Z,19.60
2022-09-12T08:05:46.342Z,19.60
2022-09-12T08:08:13.114Z,20.20
2022-09-12T08:10:39.915Z,20.70
2022-09-12T08:13:10.116Z,20.80
2022-09-12T08:15:37.600Z,21.40
2022-09-12T08:18:04.563Z,21.60
2022-09-12T08:20:31.387Z,21.70
2022-09-12T08:22:58.247Z,21.60
2022-09-12T08:25:26.038Z,22.10
2022-09-12T08:27:52.912Z,22.50
2022-09-12T08:30:19.715Z,22.40
2022-09-12T08:32:47.266Z,22.90
2022-09-12T08:35:15.180Z,22.60
2022-09-12T08:37:42.043Z,22.90
2022-09-12T08:40:14.592Z,23.10
2022-09-12T08:42:44.210Z,22.50
2022-09-12T08:45:11.015Z,22.60
2022-09-12T08:47:40.210Z,23.10
2022-09-12T08:50:14.784Z,23.60
2022-09-12T08:52:41.933Z,23.60
2022-09-12T08:55:26.674Z,24.70
2022-09-12T08:57:53.887Z,25.80
2022-09-12T09:00:21.611Z,26.00
2022-09-12T09:02:51.350Z,25.40
2022-09-12T09:05:21.147Z,25.50
2022-09-12T09:07:50.701Z,26.00
2022-09-12T09:10:24.352Z,25.80
2022-09-12T09:13:03.734Z,27.20
2022-09-12T09:15:33.623Z,27.60
2022-09-12T09:18:00.528Z,27.80
2022-09-12T09:20:30.876Z,27.80
2022-09-12T09:23:06.928Z,27.50
2022-09-12T09:25:43.793Z,27.80
2022-09-12T09:28:22.752Z,26.90
2022-09-12T09:30:50.492Z,27.20
2022-09-12T09:33:22.486Z,27.80
2022-09-12T09:35:56.738Z,26.90
2022-09-12T09:38:50.291Z,28.10
2022-09-12T09:41:41.859Z,28.80
2022-09-12T09:44:09.031Z,29.30
2022-09-12T09:46:36.150Z,29.30
2022-09-12T09:49:04.100Z,30.10
2022-09-12T09:51:37.708Z,30.50
2022-09-12T09:54:10.656Z,31.40
2022-09-12T09:56:40.704Z,29.90
2022-09-12T09:59:18.802Z,29.90
2022-09-12T10:01:47.566Z,30.70
2022-09-12T10:04:40.665Z,31.20
2022-09-12T10:07:19.355Z,29.90
2022-09-12T10:10:05.218Z,30.00
2022-09-12T10:12:32.321Z,31.30
2022-09-12T10:15:02.309Z,31.30
2022-09-12T10:17:34.311Z,32.10
2022-09-12T10:20:21.435Z,32.40
2022-09-12T10:22:49.682Z,32.80
2022-09-12T10:25:19.065Z,31.10
2022-09-12T10:28:00.534Z,31.50
2022-09-12T10:30:28.678Z,31.60
2022-09-12T10:33:07.024Z,29.50
2022-09-12T10:35:48.965Z,28.90
2022-09-12T10:38:27.216Z,29.10
2022-09-12T10:41:01.286Z,28.70
2022-09-12T10:43:35.650Z,28.90
2022-09-12T10:46:17.838Z,29.70
2022-09-12T10:48:49.779Z,29.90
2022-09-12T10:51:27.418Z,28.80
2022-09-12T10:54:07.919Z,29.30
2022-09-12T10:56:42.475Z,28.90
2022-09-12T10:59:35.560Z,29.10
2022-09-12T11:02:15.131Z,30.10
2022-09-12T11:05:06.300Z,29.90
2022-09-12T11:07:42.036Z,30.80
2022-09-12T11:10:27.466Z,30.40
2022-09-12T11:13:13.891Z,30.20
2022-09-12T11:16:05.207Z,30.90
2022-09-12T11:19:10.749Z,31.10
2022-09-12T11:22:00.239Z,30.00
2022-09-12T11:24:40.186Z,29.70
2022-09-12T11:27:30.611Z,30.40
2022-09-12T11:30:11.693Z,29.80
2022-09-12T11:33:05.721Z,29.90
2022-09-12T11:35:35.887Z,31.10
2022-09-12T11:38:23.829Z,30.00
2022-09-12T11:40:55.929Z,30.90
2022-09-12T11:43:37.944Z,30.40
2022-09-12T11:46:22.640Z,30.70
2022-09-12T11:49:04.891Z,30.70
2022-09-12T11:51:59.838Z,31.60
2022-09-12T11:54:44.837Z,32.00
2022-09-12T11:57:18.031Z,32.50
2022-09-12T12:00:09.974Z,32.50
2022-09-12T12:02:48.333Z,31.40
2022-09-12T12:05:46.279Z,30.70
2022-09-12T12:08:14.622Z,31.80
2022-09-12T12:10:44.266Z,33.40
2022-09-12T12:13:28.219Z,33.00
2022-09-12T12:16:04.140Z,30.90
2022-09-12T12:18:34.289Z,32.10
2022-09-12T12:21:29.445Z,32.30
2022-09-12T12:24:09.200Z,33.50
2022-09-12T12:26:39.544Z,33.60
2022-09-12T12:29:33.659Z,32.80
2022-09-12T12:32:07.813Z,33.50
2022-09-12T12:34:37.488Z,34.30
2022-09-12T12:37:19.755Z,34.80
2022-09-12T12:39:50.452Z,35.70
2022-09-12T12:42:35.925Z,36.10
2022-09-12T12:45:08.980Z,35.40
2022-09-12T12:47:38.955Z,36.00
2022-09-12T12:50:11.271Z,35.40
2022-09-12T12:53:19.675Z,36.00
2022-09-12T12:55:57.341Z,35.40
2022-09-12T12:58:37.504Z,37.10
2022-09-12T13:01:12.942Z,35.60
2022-09-12T13:03:47.079Z,34.90
2022-09-12T13:06:36.184Z,35.00
2022-09-12T13:09:18.399Z,36.90
2022-09-12T13:11:46.047Z,35.90
2022-09-12T13:14:34.824Z,35.30
2022-09-12T13:17:06.301Z,37.30
2022-09-12T13:19:36.886Z,39.80
2022-09-12T13:22:09.516Z,37.70
2022-09-12T13:24:52.247Z,37.20
2022-09-12T13:27:19.555Z,36.50
2022-09-12T13:29:46.604Z,36.60
2022-09-12T13:32:14.914Z,38.10
2022-09-12T13:35:05.099Z,37.20
2022-09-12T13:37:51.266Z,39.80
2022-09-12T13:40:33.228Z,39.30
2022-09-12T13:43:12.452Z,38.80
2022-09-12T13:45:39.799Z,39.50
2022-09-12T13:48:16.806Z,42.30
2022-09-12T13:50:57.248Z,43.60
2022-09-12T13:53:42.348Z,43.10
2022-09-12T13:56:17.074Z,40.90
2022-09-12T13:58:57.597Z,40.20
2022-09-12T14:01:39.419Z,36.60
2022-09-12T14:04:43.031Z,36.90
2022-09-12T14:07:25.770Z,39.30
2022-09-12T14:10:01.041Z,39.10
2022-09-12T14:12:39.324Z,39.70
2022-09-12T14:15:09.631Z,39.80
2022-09-12T14:17:39.653Z,39.50
2022-09-12T14:20:16.459Z,39.40
2022-09-12T14:22:43.532Z,40.00
2022-09-12T14:25:20.082Z,39.60
2022-09-12T14:27:57.809Z,39.80
2022-09-12T14:30:32.103Z,38.50
2022-09-12T14:33:11.309Z,39.60
2022-09-12T14:35:59.608Z,39.20
2022-09-12T14:38:35.200Z,40.30
2022-09-12T14:41:08.101Z,40.80
2022-09-12T14:43:42.726Z,42.70
2022-09-12T14:46:20.582Z,42.40
2022-09-12T14:48:53.047Z,41.40
2022-09-12T14:51:32.482Z,41.60
2022-09-12T14:53:59.700Z,42.60
2022-09-12T14:56:43.583Z,39.40
2022-09-12T14:59:35.875Z,38.50
2022-09-12T15:02:21.255Z,39.20
2022-09-12T15:04:51.663Z,38.60
2022-09-12T15:07:24.915Z,37.70
2022-09-12T15:09:53.132Z,36.90
2022-09-12T15:12:20.105Z,38.30
2022-09-12T15:14:47.324Z,39.80
2022-09-12T15:17:14.241Z,40.50
2022-09-12T15:19:41.341Z,39.90
2022-09-12T15:22:12.314Z,38.40
2022-09-12T15:24:40.225Z,37.70
2022-09-12T15:27:13.351Z,38.00
2022-09-12T15:29:40.400Z,38.80
2022-09-12T15:32:15.086Z,39.00
2022-09-12T15:34:42.163Z,38.40
2022-09-12T15:37:14.194Z,39.00
2022-09-12T15:39:41.335Z,39.60
2022-09-12T15:42:11.254Z,38.40
2022-09-12T15:44:38.211Z,38.40
2022-09-12T15:47:05.315Z,38.00
2022-09-12T15:49:32.535Z,38.50
2022-09-12T15:52:00.355Z,36.50
2022-09-12T15:54:27.251Z,36.40
2022-09-12T15:56:55.139Z,36.70
2022-09-12T15:59:22.072Z,37.20
2022-09-12T16:01:49.313Z,37.10
2022-09-12T16:04:23.823Z,36.40
2022-09-12T16:06:51.696Z,37.90
2022-09-12T16:09:18.687Z,37.10
2022-09-12T16:11:46.631Z,37.60
2022-09-12T16:14:18.186Z,37.10
2022-09-12T16:16:53.836Z,36.10
2022-09-12T16:19:21.103Z,35.40
2022-09-12T16:21:48.243Z,35.60
2022-09-12T16:24:15.623Z,33.90
2022-09-12T16:26:42.580Z,32.20
2022-09-12T16:29:12.559Z,30.30
2022-09-12T16:31:40.093Z,29.40
2022-09-12T16:34:07.514Z,28.00
2022-09-12T16:36:34.787Z,27.50
2022-09-12T16:39:01.780Z,27.00
2022-09-12T16:41:29.075Z,26.70
2022-09-12T16:43:56.054Z,26.40
2022-09-12T16:46:24.621Z,26.00
2022-09-12T16:48:55.943Z,25.80
2022-09-12T16:51:24.446Z,25.50
2022-09-12T16:53:51.708Z,25.30
2022-09-12T16:56:18.685Z,25.00
2022-09-12T16:58:45.559Z,24.70
2022-09-12T17:01:17.004Z,24.40
2022-09-12T17:03:44.225Z,24.10
2022-09-12T17:06:16.207Z,23.80
2022-09-12T17:08:44.276Z,23.60
2022-09-12T17:11:12.343Z,23.40
2022-09-12T17:14:00.496Z,23.30
2022-09-12T17:16:27.367Z,23.10
2022-09-12T17:18:54.456Z,22.90
2022-09-12T17:21:21.450Z,22.60
2022-09-12T17:23:48.805Z,22.40
2022-09-12T17:26:15.747Z,22.10
2022-09-12T17:28:42.624Z,21.90
2022-09-12T17:31:10.691Z,21.70
2022-09-12T17:33:38.056Z,21.50
2022-09-12T17:36:06.868Z,21.30
2022-09-12T17:38:34.875Z,21.10
2022-09-12T17:41:17.339Z,21.00
2022-09-12T17:43:50.261Z,20.70
2022-09-12T17:46:18.165Z,20.50
2022-09-12T17:48:45.190Z,20.40
2022-09-12T17:51:13.590Z,20.20
2022-09-12T17:53:40.762Z,20.00
2022-09-12T17:56:08.663Z,19.90
2022-09-12T17:58:35.806Z,19.70
2022-09-12T18:01:30.631Z,19.50
2022-09-12T18:04:00.575Z,19.30
2022-09-12T18:06:28.236Z,19.40
2022-09-12T18:08:55.324Z,19.20
2022-09-12T18:11:22.248Z,19.10
2022-09-12T18:13:49.366Z,19.00
2022-09-12T18:16:16.541Z,18.90
2022-09-12T18:18:43.474Z,18.80
2022-09-12T18:21:10.900Z,18.50
2022-09-12T18:23:38.028Z,18.40
2022-09-12T18:26:06.702Z,18.50
2022-09-12T18:28:34.521Z,18.40
2022-09-12T18:31:01.618Z,18.10
2022-09-12T18:33:28.510Z,18.00
2022-09-12T18:35:55.306Z,17.80
2022-09-12T18:38:22.519Z,17.70
2022-09-12T18:40:49.711Z,17.60
2022-09-12T18:43:16.668Z,17.50
2022-09-12T18:45:43.454Z,17.60
2022-09-12T18:48:10.377Z,17.60
2022-09-12T18:50:37.276Z,17.50
2022-09-12T18:53:04.134Z,17.30
2022-09-12T18:55:31.939Z,17.20
2022-09-12T18:57:58.819Z,17.20
2022-09-12T19:00:25.726Z,17.10
2022-09-12T19:02:52.578Z,17.10
2022-09-12T19:05:19.423Z,17.30
2022-09-12T19:07:46.323Z,17.30
2022-09-12T19:10:13.225Z,17.30
2022-09-12T19:12:40.153Z,17.00
2022-09-12T19:15:08.394Z,17.10
2022-09-12T19:17:35.830Z,17.00
2022-09-12T19:20:03.007Z,16.90
2022-09-12T19:22:29.926Z,16.80
2022-09-12T19:24:56.784Z,16.80
2022-09-12T19:27:23.632Z,16.70
2022-09-12T19:29:50.444Z,16.70
2022-09-12T19:32:17.270Z,16.70
2022-09-12T19:34:44.138Z,16.60
2022-09-12T19:37:10.994Z,16.50
2022-09-12T19:39:37.862Z,16.50
2022-09-12T19:42:04.736Z,16.40
2022-09-12T19:44:31.579Z,16.40
2022-09-12T19:46:58.714Z,16.20
2022-09-12T19:49:26.046Z,16.20
2022-09-12T19:51:52.930Z,16.30
2022-09-12T19:54:19.755Z,16.40
2022-09-12T19:56:46.823Z,16.50
2022-09-12T19:59:13.808Z,16.40
2022-09-12T20:01:40.846Z,16.20
2022-09-12T20:04:07.996Z,16.00
2022-09-12T20:06:35.083Z,15.90
2022-09-12T20:09:01.944Z,15.90
2022-09-12T20:11:28.998Z,15.90
2022-09-12T20:13:55.836Z,15.90
2022-09-12T20:16:29.218Z,15.80
2022-09-12T20:18:57.985Z,15.80
2022-09-12T20:21:31.137Z,16.00
2022-09-12T20:24:01.781Z,15.90
2022-09-12T20:26:28.647Z,15.70
2022-09-12T20:28:55.687Z,15.60
2022-09-12T20:31:22.559Z,15.70
2022-09-12T20:33:51.750Z,15.90
2022-09-12T20:36:20.620Z,15.80
2022-09-12T20:38:49.127Z,15.50
2022-09-12T20:41:16.487Z,15.40
2022-09-12T20:43:43.338Z,15.30
2022-09-12T20:46:10.663Z,15.40
2022-09-12T20:48:38.082Z,15.30
2022-09-12T20:51:05.246Z,15.50
2022-09-12T20:53:35.045Z,15.30
2022-09-12T20:56:02.675Z,15.30
2022-09-12T20:58:29.499Z,15.40
2022-09-12T21:00:56.319Z,15.30
2022-09-12T21:03:23.332Z,15.20
2022-09-12T21:05:50.150Z,15.10
2022-09-12T21:08:17.259Z,15.10
2022-09-12T21:10:44.562Z,15.20
2022-09-12T21:13:11.956Z,15.10
2022-09-12T21:15:40.859Z,15.10
2022-09-12T21:18:07.998Z,15.10
2022-09-12T21:20:34.971Z,14.90
2022-09-12T21:23:02.001Z,14.80
2022-09-12T21:25:29.633Z,14.80
2022-09-12T21:27:56.707Z,14.80
2022-09-12T21:30:23.907Z,14.60
2022-09-12T21:32:50.799Z,14.60
2022-09-12T21:35:17.635Z,14.60
2022-09-12T21:37:44.495Z,14.50
2022-09-12T21:40:11.366Z,14.70
2022-09-12T21:42:38.226Z,14.70
2022-09-12T21:45:05.433Z,14.90
2022-09-12T21:47:32.291Z,14.90
2022-09-12T21:49:59.387Z,14.90
2022-09-12T21:52:26.417Z,14.70
2022-09-12T21:54:53.225Z,14.50
2022-09-12T21:57:20.222Z,14.50
2022-09-12T21:59:47.163Z,14.60
2022-09-12T22:02:14.090Z,14.60
2022-09-12T22:04:40.939Z,14.60
2022-09-12T22:07:08.222Z,14.60
2022-09-12T22:09:35.051Z,14.40
2022-09-12T22:12:02.448Z,14.60
2022-09-12T22:14:29.693Z,14.60
2022-09-12T22:16:56.897Z,14.60
2022-09-12T22:19:23.807Z,14.50
2022-09-12T22:22:09.139Z,14.40
2022-09-12T22:24:36.044Z,14.60
2022-09-12T22:27:04.443Z,14.60
2022-09-12T22:29:31.618Z,14.40
2022-09-12T22:31:59.151Z,14.60
2022-09-12T22:34:26.275Z,14.60
2022-09-12T22:36:53.126Z,14.40
2022-09-12T22:39:20.074Z,14.30
2022-09-12T22:41:46.948Z,14.30
2022-09-12T22:44:14.313Z,14.30
2022-09-12T22:46:41.143Z,14.30
2022-09-12T22:49:08.203Z,14.10
2022-09-12T22:51:35.352Z,14.00
2022-09-12T22:54:02.207Z,14.00
2022-09-12T22:56:29.051Z,13.90
2022-09-12T22:58:55.847Z,14.00
2022-09-12T23:01:24.210Z,14.00
2022-09-12T23:03:51.237Z,13.90
2022-09-12T23:06:18.178Z,13.80
2022-09-12T23:08:45.160Z,13.80
2022-09-12T23:11:13.246Z,13.80
2022-09-12T23:13:42.192Z,13.80
2022-09-12T23:16:13.395Z,13.70
2022-09-12T23:18:40.358Z,13.90
2022-09-12T23:21:08.231Z,13.80
2022-09-12T23:23:35.795Z,14.00
2022-09-12T23:26:02.612Z,13.80
2022-09-12T23:28:29.878Z,13.90
2022-09-12T23:30:57.018Z,13.90
2022-09-12T23:33:23.830Z,13.80
2022-09-12T23:35:50.665Z,13.90
2022-09-12T23:38:17.477Z,14.00
2022-09-12T23:40:44.391Z,13.90
2022-09-12T23:43:11.287Z,13.80
2022-09-12T23:45:38.182Z,13.70
2022-09-12T23:48:05.277Z,13.60
2022-09-12T23:50:32.066Z,13.60
2022-09-12T23:52:59.035Z,13.70
2022-09-12T23:55:25.854Z,13.80
2022-09-12T23:57:52.707Z,13.80
